Time;durP1;ratioP1;P1;durP2;ratioP2;P2;SDS_P1;SDS_P2;PMS_P1;PMS_P2;Temp;Humidity;BMP_temperature;BMP_pressure;BME280_temperature;BME280_humidity;BME280_pressure;Samples;Min_cycle;Max_cycle;Signal;HPM_P1;HPM_P2
2022/05/27 00:02:01;;;;;;;2.60;1.77;;;13.80;99.90;;;;;;5082792;28;20496;-88
2022/05/27 00:04:28;;;;;;;1.97;1.37;;;;;;;;;;5079898;28;20544;-90
2022/05/27 00:06:55;;;;;;;3.20;1.80;;;;;;;;;;5079299;28;20853;-90
2022/05/27 00:09:25;;;;;;;4.23;1.60;;;;;;;;;;5082327;28;20448;-88
2022/05/27 00:11:52;;;;;;;2.20;1.77;;;;;;;;;;5080986;28;20544;-91
2022/05/27 00:14:19;;;;;;;2.63;1.70;;;;;;;;;;5083435;28;20445;-91
2022/05/27 00:16:46;;;;;;;3.43;1.47;;;;;;;;;;5078855;28;20480;-93
2022/05/27 00:19:16;;;;;;;2.20;1.60;;;13.60;99.90;;;;;;5082511;28;20465;-88
2022/05/27 00:21:43;;;;;;;1.53;1.40;;;;;;;;;;5083955;28;20546;-90
2022/05/27 00:24:10;;;;;;;2.30;1.57;;;;;;;;;;5082054;28;20960;-87
2022/05/27 00:26:38;;;;;;;2.50;1.40;;;;;;;;;;5081777;28;20457;-87
2022/05/27 00:29:05;;;;;;;3.57;2.07;;;;;;;;;;5097260;28;20441;-90
2022/05/27 00:31:32;;;;;;;2.00;1.37;;;;;;;;;;5093570;28;20445;-88
2022/05/27 00:33:59;;;;;;;1.50;1.40;;;;;;;;;;5083678;28;20445;-94
2022/05/27 00:36:27;;;;;;;1.37;1.27;;;13.10;99.90;;;;;;5083075;28;20449;-91
2022/05/27 00:38:55;;;;;;;1.40;1.10;;;;;;;;;;5086155;28;20455;-86
2022/05/27 00:41:22;;;;;;;4.33;1.23;;;;;;;;;;5087071;28;20511;-86
2022/05/27 00:43:49;;;;;;;2.77;1.40;;;;;;;;;;5083385;28;20442;-87
2022/05/27 00:46:20;;;;;;;1.93;1.50;;;12.80;99.90;;;;;;5083375;28;20446;-89
2022/05/27 00:48:48;;;;;;;3.50;1.20;;;;;;;;;;5083184;28;20541;-86
2022/05/27 00:51:22;;;;;;;2.50;1.20;;;12.70;99.90;;;;;;5081564;28;20451;-88
2022/05/27 00:53:56;;;;;;;3.30;1.57;;;13.00;99.90;;;;;;5081368;28;20448;-87
2022/05/27 00:56:28;;;;;;;1.90;1.40;;;12.70;99.90;;;;;;5080636;28;20449;-87
2022/05/27 00:58:59;;;;;;;2.37;1.50;;;12.60;99.90;;;;;;5082766;28;20827;-93
2022/05/27 01:01:28;;;;;;;2.53;1.20;;;12.60;99.90;;;;;;5082021;28;20502;-95
2022/05/27 01:03:57;;;;;;;2.13;1.37;;;12.50;99.90;;;;;;5080136;28;20528;-89
2022/05/27 01:06:24;;;;;;;3.27;1.20;;;;;;;;;;5075413;28;20430;-92
2022/05/27 01:08:53;;;;;;;1.60;1.50;;;12.60;99.90;;;;;;5082337;28;20454;-91
2022/05/27 01:11:31;;;;;;;1.80;1.50;;;12.60;99.90;;;;;;5080373;28;20813;-91
2022/05/27 01:14:08;;;;;;;2.70;1.40;;;12.60;99.90;;;;;;5080519;28;20461;-88
2022/05/27 01:16:44;;;;;;;2.60;1.40;;;12.60;99.90;;;;;;5080744;28;20481;-88
2022/05/27 01:22:52;;;;;;;2.00;1.40;;;12.40;99.90;;;;;;5081880;28;20982;-86
2022/05/27 01:25:53;;;;;;;3.30;1.77;;;12.40;99.90;;;;;;5081011;28;20449;-87
2022/05/27 01:28:32;;;;;;;2.73;1.67;;;12.40;99.90;;;;;;5081350;28;20932;-92
2022/05/27 01:31:09;;;;;;;1.90;1.50;;;12.30;99.90;;;;;;5081282;28;20457;-87
2022/05/27 01:33:40;;;;;;;2.53;1.60;;;12.70;99.90;;;;;;5081375;28;20453;-89
2022/05/27 01:36:17;;;;;;;1.90;1.33;;;12.20;99.90;;;;;;5078632;28;20449;-94
2022/05/27 01:38:52;;;;;;;1.77;1.67;;;12.20;99.90;;;;;;5081785;28;20929;-91
2022/05/27 01:41:26;;;;;;;5.07;2.27;;;12.20;99.90;;;;;;5079184;28;20493;-90
2022/05/27 01:43:59;;;;;;;2.57;1.83;;;12.20;99.90;;;;;;5081530;28;20794;-86
2022/05/27 01:46:33;;;;;;;2.20;1.70;;;12.10;99.90;;;;;;5078122;28;20448;-93
2022/05/27 01:49:08;;;;;;;1.80;1.60;;;12.10;99.90;;;;;;5081318;28;20441;-87
2022/05/27 01:51:39;;;;;;;2.40;1.97;;;12.10;99.90;;;;;;5076219;28;20449;-88
2022/05/27 01:54:12;;;;;;;2.70;1.90;;;12.00;99.90;;;;;;5080368;28;20442;-90
2022/05/27 01:56:47;;;;;;;2.50;1.93;;;11.90;99.90;;;;;;5076524;28;20445;-94
2022/05/27 01:59:19;;;;;;;1.73;1.40;;;11.90;99.90;;;;;;5079950;28;20449;-94
2022/05/27 02:01:50;;;;;;;5.73;1.30;;;11.80;99.90;;;;;;5075608;28;20497;-93
2022/05/27 02:04:22;;;;;;;1.93;1.67;;;11.80;99.90;;;;;;5079245;28;20452;-87
2022/05/27 02:06:52;;;;;;;1.43;1.20;;;11.80;99.90;;;;;;5079940;28;20461;-88
2022/05/27 02:09:24;;;;;;;1.50;1.40;;;11.80;99.90;;;;;;5079013;28;20872;-94
2022/05/27 02:11:57;;;;;;;4.50;2.00;;;12.00;99.90;;;;;;5072664;28;20457;-86
2022/05/27 02:14:30;;;;;;;1.47;1.20;;;12.00;99.90;;;;;;5078916;28;20450;-89
2022/05/27 02:17:04;;;;;;;3.17;1.80;;;12.00;99.90;;;;;;5080136;28;20489;-85
2022/05/27 02:19:36;;;;;;;2.17;1.97;;;12.00;99.90;;;;;;5081281;28;20449;-89
2022/05/27 02:22:06;;;;;;;2.40;1.90;;;12.00;99.90;;;;;;5081684;28;20481;-91
2022/05/27 02:24:40;;;;;;;1.50;1.40;;;12.00;99.90;;;;;;5077898;28;20449;-88
2022/05/27 02:27:11;;;;;;;2.30;1.40;;;11.90;99.90;;;;;;5081357;28;20449;-89
2022/05/27 02:29:39;;;;;;;2.07;1.30;;;;;;;;;;5086165;28;20449;-85
2022/05/27 02:32:10;;;;;;;3.10;1.80;;;11.70;99.90;;;;;;5091595;28;20456;-86
2022/05/27 02:37:33;;;;;;;2.40;1.77;;;11.60;99.90;;;;;;5082253;28;20477;-94
2022/05/27 02:40:02;;;;;;;5.00;2.30;;;11.60;99.90;;;;;;5083221;28;20441;-92
2022/05/27 02:42:36;;;;;;;2.13;1.77;;;11.50;99.90;;;;;;5082454;28;20493;-87
2022/05/27 02:45:13;;;;;;;3.50;2.00;;;11.50;99.90;;;;;;5082501;28;20456;-92
2022/05/27 02:47:49;;;;;;;2.20;1.20;;;11.50;99.90;;;;;;5079066;28;20451;-95
2022/05/27 02:50:25;;;;;;;2.17;1.83;;;11.40;99.90;;;;;;5078202;28;20445;-86
2022/05/27 02:52:59;;;;;;;3.23;1.87;;;11.40;99.90;;;;;;5083316;28;20457;-94
2022/05/27 02:55:31;;;;;;;2.50;1.90;;;11.30;99.90;;;;;;5082118;28;20444;-94
2022/05/27 02:58:02;;;;;;;3.43;1.73;;;11.30;99.90;;;;;;5082256;28;20477;-90
2022/05/27 03:00:33;;;;;;;2.07;1.50;;;11.50;99.90;;;;;;5083665;28;20449;-86
2022/05/27 03:03:01;;;;;;;3.40;1.70;;;11.50;99.90;;;;;;5083328;28;20477;-95
2022/05/27 03:05:33;;;;;;;2.47;1.70;;;11.50;99.90;;;;;;5083316;28;20453;-85
2022/05/27 03:08:08;;;;;;;2.50;1.60;;;11.60;99.90;;;;;;5082382;28;20449;-94
2022/05/27 03:10:49;;;;;;;1.93;1.83;;;11.60;99.90;;;;;;5082582;28;20449;-86
2022/05/27 03:13:47;;;;;;;1.90;1.70;;;11.50;99.90;;;;;;5085101;28;20779;-87
2022/05/27 03:16:24;;;;;;;2.20;2.00;;;11.50;99.90;;;;;;5027637;28;20484;-91
2022/05/27 03:19:17;;;;;;;2.60;1.67;;;11.50;99.90;;;;;;5079663;28;20444;-88
2022/05/27 03:21:54;;;;;;;4.23;2.53;;;11.50;99.90;;;;;;5084732;28;20898;-92
2022/05/27 03:24:32;;;;;;;1.90;1.43;;;11.60;99.90;;;;;;5083579;28;20449;-93
2022/05/27 03:27:10;;;;;;;2.77;1.93;;;11.70;99.90;;;;;;5082169;28;20433;-93
2022/05/27 03:29:45;;;;;;;2.60;2.03;;;11.70;99.90;;;;;;5084092;28;20862;-89
2022/05/27 03:32:20;;;;;;;2.10;1.80;;;11.90;99.90;;;;;;5077685;28;20436;-88
2022/05/27 03:34:53;;;;;;;1.90;1.80;;;12.00;99.90;;;;;;5080088;28;20777;-89
2022/05/27 03:37:26;;;;;;;2.13;1.60;;;12.00;99.90;;;;;;5080591;28;20442;-91
2022/05/27 03:40:04;;;;;;;2.10;1.83;;;;;;;;;;5078158;28;20511;-86
2022/05/27 03:42:32;;;;;;;3.80;2.23;;;12.30;99.90;;;;;;5079864;28;20501;-88
2022/05/27 03:45:06;;;;;;;3.90;2.10;;;12.30;99.90;;;;;;5082793;28;20446;-95
2022/05/27 03:47:33;;;;;;;2.60;1.60;;;;;;;;;;5083232;28;20442;-90
2022/05/27 03:50:01;;;;;;;1.97;1.77;;;12.50;99.90;;;;;;5082732;28;20517;-92
2022/05/27 03:52:34;;;;;;;3.87;2.10;;;12.50;99.90;;;;;;5085489;28;20438;-90
2022/05/27 03:55:01;;;;;;;1.90;1.70;;;;;;;;;;5083472;28;20440;-88
2022/05/27 03:57:28;;;;;;;1.57;1.37;;;;;;;;;;5081468;28;20445;-93
2022/05/27 03:59:55;;;;;;;2.40;1.50;;;;;;;;;;5080252;28;20446;-95
2022/05/27 04:02:22;;;;;;;2.37;2.10;;;;;;;;;;5084165;28;20489;-89
2022/05/27 04:04:49;;;;;;;3.30;1.90;;;;;;;;;;5081093;28;20437;-92
2022/05/27 04:07:18;;;;;;;1.87;1.77;;;12.80;99.90;;;;;;5082026;28;20453;-87
2022/05/27 04:09:45;;;;;;;3.63;2.43;;;;;;;;;;5085113;28;20453;-93
2022/05/27 04:12:12;;;;;;;5.70;1.87;;;;;;;;;;5082400;28;20812;-92
2022/05/27 04:14:39;;;;;;;1.47;1.30;;;;;;;;;;5085307;28;20453;-88
2022/05/27 04:19:51;;;;;;;2.10;1.90;;;;;;;;;;5080233;28;20456;-94
2022/05/27 04:22:19;;;;;;;4.13;2.10;;;13.10;99.90;;;;;;5085095;28;20497;-91
2022/05/27 04:24:46;;;;;;;3.57;1.73;;;;;;;;;;5081526;28;20450;-89
2022/05/27 04:27:15;;;;;;;3.83;1.60;;;13.00;99.90;;;;;;5084221;28;20454;-91
2022/05/27 04:29:44;;;;;;;2.90;1.80;;;13.00;99.90;;;;;;5086366;28;20445;-86
2022/05/27 04:32:12;;;;;;;3.60;1.90;;;13.00;99.90;;;;;;5080036;28;20445;-89
2022/05/27 04:34:40;;;;;;;3.13;1.80;;;12.90;99.90;;;;;;5073620;28;20450;-92
2022/05/27 04:37:08;;;;;;;1.77;1.60;;;;;;;;;;5075461;28;20500;-95
2022/05/27 04:39:36;;;;;;;2.40;1.83;;;12.80;99.90;;;;;;5080063;28;20948;-92
2022/05/27 04:42:03;;;;;;;2.30;2.10;;;;;;;;;;5076554;28;20478;-90
2022/05/27 04:44:30;;;;;;;1.90;1.70;;;;;;;;;;5081563;28;20457;-95
2022/05/27 04:46:58;;;;;;;4.30;1.90;;;;;;;;;;5075309;28;20429;-93
2022/05/27 04:52:09;;;;;;;3.10;1.57;;;;;;;;;;5086658;28;20417;-93
2022/05/27 04:54:37;;;;;;;1.60;1.17;;;12.90;99.90;;;;;;5087249;28;20449;-90
2022/05/27 04:57:05;;;;;;;2.27;1.70;;;;;;;;;;5091411;28;20418;-87
2022/05/27 04:59:35;;;;;;;4.60;2.20;;;;;;;;;;5091091;28;20455;-87
2022/05/27 05:02:03;;;;;;;2.13;1.50;;;;;;;;;;5085850;28;20522;-89
2022/05/27 05:04:30;;;;;;;2.60;1.93;;;;;;;;;;5085504;28;20430;-94
2022/05/27 05:07:01;;;;;;;2.20;1.57;;;13.30;99.90;;;;;;5087312;28;20457;-90
2022/05/27 05:09:28;;;;;;;1.97;1.77;;;;;;;;;;5078211;28;20446;-91
2022/05/27 05:11:57;;;;;;;2.70;1.87;;;;;;;;;;5081058;28;20458;-88
2022/05/27 05:14:24;;;;;;;3.40;2.10;;;;;;;;;;5085386;28;20430;-86
2022/05/27 05:16:52;;;;;;;4.50;2.20;;;;;;;;;;5089773;28;20500;-86
2022/05/27 05:19:19;;;;;;;2.67;1.90;;;;;;;;;;5080154;28;20805;-90
2022/05/27 05:21:46;;;;;;;2.23;1.90;;;;;;;;;;5079271;28;20508;-94
2022/05/27 05:24:13;;;;;;;3.37;2.17;;;;;;;;;;5079947;28;20434;-93
2022/05/27 05:26:40;;;;;;;1.90;1.73;;;;;;;;;;5077288;28;20457;-88
2022/05/27 05:29:09;;;;;;;2.33;1.67;;;;;;;;;;5077962;28;20472;-90
2022/05/27 05:31:36;;;;;;;5.10;1.70;;;;;;;;;;5076510;28;20449;-89
2022/05/27 05:34:03;;;;;;;3.20;2.27;;;;;;;;;;5077589;28;20441;-87
2022/05/27 05:36:31;;;;;;;2.20;2.00;;;14.30;99.90;;;;;;5081775;28;20445;-90
2022/05/27 05:38:59;;;;;;;5.40;2.13;;;;;;;;;;5081223;28;20509;-89
2022/05/27 05:41:27;;;;;;;2.97;1.53;;;;;;;;;;5081003;28;20929;-93
2022/05/27 05:43:54;;;;;;;4.23;2.10;;;;;;;;;;5074321;28;20442;-87
2022/05/27 05:46:23;;;;;;;1.40;1.30;;;14.20;99.90;;;;;;5080163;28;20518;-89
2022/05/27 05:48:50;;;;;;;1.87;1.70;;;;;;;;;;5079775;28;20454;-94
2022/05/27 05:51:18;;;;;;;2.50;2.17;;;14.20;99.90;;;;;;5079353;28;20442;-93
2022/05/27 05:53:45;;;;;;;3.60;2.50;;;;;;;;;;5073602;28;20441;-87
2022/05/27 05:56:13;;;;;;;4.03;2.63;;;;;;;;;;5077580;28;20442;-95
2022/05/27 05:58:40;;;;;;;5.30;2.33;;;;;;;;;;5078241;28;20953;-91
2022/05/27 06:01:07;;;;;;;5.10;2.60;;;;;;;;;;5081973;28;20450;-94
2022/05/27 06:03:36;;;;;;;3.13;2.23;;;14.10;99.90;;;;;;5082763;28;20492;-91
2022/05/27 06:06:03;;;;;;;2.90;2.07;;;;;;;;;;5081249;28;20464;-89
2022/05/27 06:08:31;;;;;;;2.83;2.17;;;13.90;99.90;;;;;;5075112;28;20445;-90
2022/05/27 06:10:58;;;;;;;5.00;3.00;;;;;;;;;;5076525;28;20461;-92
2022/05/27 06:13:28;;;;;;;9.80;2.07;;;;;;;;;;5078911;28;20445;-93
2022/05/27 06:15:55;;;;;;;3.67;2.50;;;;;;;;;;5077929;28;20547;-95
2022/05/27 06:18:22;;;;;;;6.67;2.40;;;;;;;;;;5078695;28;20450;-93
2022/05/27 06:20:50;;;;;;;3.53;3.07;;;14.20;99.90;;;;;;5078827;28;20449;-92
2022/05/27 06:23:17;;;;;;;2.20;1.93;;;;;;;;;;5087494;28;20493;-94
2022/05/27 06:25:45;;;;;;;3.33;2.47;;;;;;;;;;5075957;28;20495;-92
2022/05/27 06:36:46;;;;;;;2.93;2.63;;;14.50;99.90;;;;;;4996910;28;20468;-94
2022/05/27 06:39:13;;;;;;;3.10;2.40;;;;;;;;;;5057419;28;20457;-93
2022/05/27 06:41:40;;;;;;;3.70;2.63;;;;;;;;;;5073488;28;20964;-84
2022/05/27 06:44:08;;;;;;;4.63;2.10;;;14.60;99.90;;;;;;5082168;28;20446;-92
2022/05/27 06:46:35;;;;;;;4.60;3.00;;;14.60;99.90;;;;;;5073299;28;20945;-87
2022/05/27 06:49:02;;;;;;;4.03;2.63;;;;;;;;;;5075320;28;20454;-90
2022/05/27 06:51:30;;;;;;;2.10;1.73;;;;;;;;;;5073768;28;20442;-90
2022/05/27 06:53:59;;;;;;;2.60;2.10;;;14.50;99.90;;;;;;5074391;28;20434;-91
2022/05/27 06:56:26;;;;;;;4.87;2.30;;;;;;;;;;5069636;28;20808;-87
2022/05/27 06:58:53;;;;;;;3.63;2.43;;;;;;;;;;5073131;28;20445;-87
2022/05/27 07:01:21;;;;;;;3.40;2.27;;;;;;;;;;5070263;28;20849;-88
2022/05/27 07:03:48;;;;;;;2.70;2.20;;;;;;;;;;5073638;28;20508;-90
2022/05/27 07:06:15;;;;;;;3.47;2.70;;;;;;;;;;5073263;28;20453;-87
2022/05/27 07:08:42;;;;;;;4.43;2.70;;;;;;;;;;5073487;28;20457;-88
2022/05/27 07:11:10;;;;;;;4.77;2.30;;;14.60;99.90;;;;;;5073072;28;20445;-86
2022/05/27 07:13:38;;;;;;;3.23;1.90;;;;;;;;;;5076055;28;20513;-86
2022/05/27 07:16:06;;;;;;;2.67;2.30;;;14.60;99.90;;;;;;5076037;28;20489;-88
2022/05/27 07:18:33;;;;;;;3.40;2.27;;;;;;;;;;5074439;28;20441;-88
2022/05/27 07:21:00;;;;;;;3.80;2.20;;;;;;;;;;5075502;28;20462;-88
2022/05/27 07:23:27;;;;;;;2.70;2.50;;;;;;;;;;5074316;28;20495;-90
2022/05/27 07:25:55;;;;;;;4.67;2.60;;;;;;;;;;5075459;28;20470;-86
2022/05/27 07:28:23;;;;;;;3.33;2.13;;;14.80;99.90;;;;;;5065922;28;20450;-87
2022/05/27 07:30:51;;;;;;;4.17;2.10;;;;;;;;;;5063836;28;20455;-91
2022/05/27 07:33:20;;;;;;;6.17;2.40;;;;;;;;;;5058736;28;20454;-87
2022/05/27 07:35:49;;;;;;;3.23;2.30;;;14.80;99.90;;;;;;5028711;28;20447;-91
2022/05/27 07:38:17;;;;;;;4.43;2.30;;;;;;;;;;5061782;28;20526;-91
2022/05/27 07:40:44;;;;;;;2.90;2.07;;;;;;;;;;5061842;28;20478;-88
2022/05/27 07:43:12;;;;;;;3.17;2.60;;;;;;;;;;5054611;28;20985;-92
2022/05/27 07:45:44;;;;;;;2.40;2.20;;;14.90;99.90;;;;;;5056560;28;20461;-91
2022/05/27 07:48:12;;;;;;;3.33;2.63;;;14.70;99.90;;;;;;5055919;28;20467;-86
2022/05/27 07:50:40;;;;;;;2.53;2.33;;;15.00;99.90;;;;;;5057109;28;20428;-87
2022/05/27 07:53:07;;;;;;;2.57;2.33;;;;;;;;;;5057226;28;20450;-91
2022/05/27 07:55:34;;;;;;;5.17;2.50;;;;;;;;;;5057495;28;20446;-87
2022/05/27 07:58:01;;;;;;;2.90;2.17;;;;;;;;;;5058218;28;20447;-87
2022/05/27 08:00:30;;;;;;;3.60;2.30;;;15.00;99.90;;;;;;5057924;28;20443;-87
2022/05/27 08:02:58;;;;;;;6.83;2.80;;;15.20;99.90;;;;;;5056626;28;20836;-85
2022/05/27 08:05:27;;;;;;;3.00;2.60;;;15.30;99.90;;;;;;5063730;28;20497;-92
2022/05/27 08:07:56;;;;;;;7.00;2.67;;;15.30;99.90;;;;;;5058159;28;20822;-87
2022/05/27 08:10:26;;;;;;;3.63;2.80;;;15.40;99.90;;;;;;5056797;28;20526;-87
2022/05/27 08:12:54;;;;;;;4.20;2.40;;;;;;;;;;5056256;28;20443;-87
2022/05/27 08:15:21;;;;;;;2.50;2.30;;;;;;;;;;5059363;28;20474;-87
2022/05/27 08:17:48;;;;;;;5.07;2.50;;;;;;;;;;5059153;28;20447;-86
2022/05/27 08:20:20;;;;;;;4.70;2.77;;;15.50;99.90;;;;;;5058446;28;20450;-87
2022/05/27 08:22:47;;;;;;;5.67;3.20;;;;;;;;;;5058014;28;20492;-86
2022/05/27 08:25:14;;;;;;;3.70;2.30;;;;;;;;;;5062020;28;20450;-87
2022/05/27 08:27:41;;;;;;;2.60;2.40;;;;;;;;;;5063552;28;20451;-86
2022/05/27 08:30:11;;;;;;;2.30;2.10;;;15.80;99.90;;;;;;5066584;28;20449;-88
2022/05/27 08:32:39;;;;;;;3.73;2.40;;;;;;;;;;5067186;28;20434;-85
2022/05/27 08:38:05;;;;;;;4.27;2.03;;;15.70;99.90;;;;;;5064810;28;20426;-88
2022/05/27 08:40:45;;;;;;;3.00;2.43;;;15.70;99.90;;;;;;5083184;23;20524;-89
2022/05/27 08:43:19;;;;;;;3.57;1.93;;;15.60;99.90;;;;;;5086426;28;20487;-89
2022/05/27 08:46:00;;;;;;;3.90;2.20;;;15.50;99.90;;;;;;5082651;28;20442;-87
2022/05/27 08:48:32;;;;;;;2.80;2.23;;;15.50;99.90;;;;;;5079313;28;20449;-86
2022/05/27 08:51:04;;;;;;;7.30;2.33;;;15.60;99.90;;;;;;5081090;28;20472;-94
2022/05/27 08:53:38;;;;;;;2.63;2.00;;;15.80;99.90;;;;;;5081550;28;20564;-86
2022/05/27 09:01:49;;;;;;;3.43;2.03;;;16.20;99.90;;;;;;5084970;28;20472;-86
2022/05/27 09:04:22;;;;;;;3.03;2.30;;;16.30;99.90;;;;;;5084644;28;20482;-87
2022/05/27 09:06:52;;;;;;;2.90;1.73;;;16.40;99.90;;;;;;5057247;28;20435;-86
2022/05/27 09:09:24;;;;;;;2.20;1.80;;;16.40;99.90;;;;;;5061644;28;20435;-85
2022/05/27 09:12:10;;;;;;;2.50;2.00;;;16.70;99.90;;;;;;5058216;28;20461;-87
2022/05/27 09:14:42;;;;;;;2.63;2.37;;;16.80;99.90;;;;;;5065178;28;20810;-88
2022/05/27 09:17:17;;;;;;;3.20;1.90;;;16.70;99.90;;;;;;5082757;22;20489;-88
2022/05/27 09:19:51;;;;;;;3.37;2.37;;;17.80;99.90;;;;;;5087173;22;20559;-92
2022/05/27 09:22:26;;;;;;;2.70;2.10;;;18.40;99.90;;;;;;5064239;28;20445;-87
2022/05/27 09:25:06;;;;;;;2.20;1.83;;;18.90;99.90;;;;;;5049049;28;20450;-86
2022/05/27 09:28:04;;;;;;;2.70;2.23;;;19.40;99.90;;;;;;5041229;28;20451;-86
2022/05/27 09:30:33;;;;;;;2.23;1.63;;;19.50;99.90;;;;;;5050867;28;20464;-92
2022/05/27 09:33:06;;;;;;;1.50;1.40;;;19.60;99.90;;;;;;5061025;28;20451;-91
2022/05/27 09:35:51;;;;;;;1.90;1.40;;;19.60;99.90;;;;;;5056347;28;20455;-93
2022/05/27 09:38:22;;;;;;;1.97;1.73;;;20.20;99.90;;;;;;5047842;28;20450;-90
2022/05/27 09:40:59;;;;;;;2.57;1.83;;;20.50;99.70;;;;;;5058660;22;20511;-94
2022/05/27 09:43:31;;;;;;;2.73;1.77;;;20.40;99.40;;;;;;5045313;28;20486;-91
2022/05/27 09:46:01;;;;;;;1.77;1.40;;;19.60;99.90;;;;;;5038156;28;20444;-92
2022/05/27 09:48:28;;;;;;;2.17;1.60;;;;;;;;;;5035000;28;20940;-94
2022/05/27 09:50:57;;;;;;;2.80;1.50;;;20.00;99.90;;;;;;5035667;28;20456;-94
2022/05/27 09:53:30;;;;;;;2.37;1.80;;;19.90;99.70;;;;;;5041523;28;20435;-86
2022/05/27 09:56:04;;;;;;;1.97;1.40;;;19.10;99.90;;;;;;5041569;28;20464;-87
2022/05/27 09:58:34;;;;;;;2.70;1.73;;;19.00;99.90;;;;;;5041267;28;20451;-91
2022/05/27 10:01:03;;;;;;;2.77;2.33;;;19.60;99.90;;;;;;5041904;28;20443;-86
2022/05/27 10:03:36;;;;;;;2.07;1.60;;;19.70;99.90;;;;;;5039175;28;20495;-93
2022/05/27 10:06:06;;;;;;;1.37;1.27;;;20.20;99.90;;;;;;5039117;28;20455;-91
2022/05/27 10:08:43;;;;;;;3.43;1.60;;;20.20;99.90;;;;;;5042948;28;20478;-85
2022/05/27 10:11:26;;;;;;;1.53;1.43;;;;;;;;;;5007011;28;20455;-92
2022/05/27 10:14:19;;;;;;;2.33;1.67;;;20.80;99.90;;;;;;5043629;28;20460;-90
2022/05/27 10:17:07;;;;;;;1.40;1.30;;;;;;;;;;5057931;22;20485;-92
2022/05/27 10:19:34;;;;;;;1.73;1.63;;;;;;;;;;5078603;28;20813;-87
2022/05/27 10:22:04;;;;;;;1.90;1.63;;;19.60;99.90;;;;;;5065051;28;20467;-90
2022/05/27 10:24:33;;;;;;;1.57;1.43;;;20.20;99.90;;;;;;5056493;28;20490;-88
2022/05/27 10:27:11;;;;;;;2.13;1.50;;;21.00;92.80;;;;;;5051787;28;20450;-93
2022/05/27 10:29:50;;;;;;;4.03;2.20;;;21.30;99.00;;;;;;5037988;28;20451;-90
2022/05/27 10:32:33;;;;;;;4.90;1.70;;;20.10;92.20;;;;;;5049606;28;20533;-92
2022/05/27 10:35:02;;;;;;;1.50;1.40;;;19.60;92.40;;;;;;5055071;28;20465;-88
2022/05/27 10:37:49;;;;;;;1.93;1.33;;;19.80;95.70;;;;;;5056782;28;20952;-90
2022/05/27 10:40:31;;;;;;;1.23;1.13;;;20.40;99.90;;;;;;5067438;28;20462;-89
2022/05/27 10:43:11;;;;;;;1.90;1.70;;;20.70;98.10;;;;;;5059909;28;20467;-90
2022/05/27 10:45:42;;;;;;;1.20;1.10;;;20.80;90.60;;;;;;5040061;28;20436;-87
2022/05/27 10:48:42;;;;;;;1.53;1.27;;;20.50;93.50;;;;;;5033893;28;20936;-86
2022/05/27 10:51:18;;;;;;;2.13;1.37;;;20.90;93.80;;;;;;5041591;28;20440;-87
2022/05/27 10:54:15;;;;;;;3.07;2.60;;;20.70;98.80;;;;;;5035539;28;20462;-87
2022/05/27 11:02:04;;;;;;;3.43;1.33;;;;;;;;;;5051045;28;20462;-93
2022/05/27 11:02:51;;;;;;;1.73;1.57;;;19.40;95.60;;;;;;5054168;28;20438;-89
2022/05/27 11:05:39;;;;;;;2.63;2.43;;;19.60;94.90;;;;;;5051433;28;20493;-89
2022/05/27 11:08:23;;;;;;;2.10;1.50;;;19.40;94.50;;;;;;5055616;28;20454;-89
2022/05/27 11:11:00;;;;;;;1.50;1.17;;;19.50;94.60;;;;;;5057615;28;20446;-91
2022/05/27 11:16:57;;;;;;;2.10;1.67;;;19.50;94.70;;;;;;5056506;28;20915;-88
2022/05/27 11:19:46;;;;;;;2.10;1.40;;;19.50;92.60;;;;;;5056896;28;20457;-90
2022/05/27 11:22:23;;;;;;;1.70;1.13;;;19.80;94.00;;;;;;5052066;28;20482;-93
2022/05/27 11:25:10;;;;;;;2.80;1.50;;;19.60;95.90;;;;;;5056814;28;20485;-88
2022/05/27 11:27:54;;;;;;;2.10;1.20;;;19.60;94.90;;;;;;5054677;28;20454;-88
2022/05/27 11:30:28;;;;;;;1.50;1.40;;;19.50;94.70;;;;;;5052356;28;20457;-92
2022/05/27 11:33:19;;;;;;;1.53;1.43;;;19.60;93.20;;;;;;5050622;28;20455;-87
2022/05/27 11:36:00;;;;;;;1.20;1.10;;;19.40;94.50;;;;;;5054778;28;20454;-92
2022/05/27 11:38:55;;;;;;;2.30;1.40;;;19.20;94.30;;;;;;5050154;28;20461;-93
2022/05/27 11:41:28;;;;;;;1.80;1.70;;;19.20;95.40;;;;;;5048281;28;20450;-87
2022/05/27 11:44:06;;;;;;;2.17;1.50;;;19.20;96.10;;;;;;5054270;28;20486;-87
2022/05/27 11:46:46;;;;;;;1.30;1.20;;;19.40;94.50;;;;;;5056767;28;20454;-92
2022/05/27 11:49:45;;;;;;;1.37;1.27;;;19.30;94.60;;;;;;5053136;28;20481;-93
2022/05/27 11:52:36;;;;;;;1.23;1.13;;;19.10;95.10;;;;;;5054336;28;20443;-90
2022/05/27 11:55:39;;;;;;;1.30;1.20;;;18.60;94.80;;;;;;5054978;28;20458;-85
2022/05/27 11:58:16;;;;;;;1.30;1.20;;;18.40;96.50;;;;;;5059554;28;20449;-87
2022/05/27 12:00:47;;;;;;;2.87;1.33;;;18.30;97.50;;;;;;5055802;28;20437;-91
2022/05/27 12:03:27;;;;;;;3.20;1.27;;;18.40;96.60;;;;;;5058408;28;20453;-90
2022/05/27 12:05:57;;;;;;;1.50;1.40;;;18.20;97.90;;;;;;5059159;28;20961;-89
2022/05/27 12:08:33;;;;;;;1.63;1.10;;;18.60;97.10;;;;;;5061003;28;20473;-89
2022/05/27 12:11:05;;;;;;;1.23;1.13;;;19.00;97.30;;;;;;5059661;28;20807;-90
2022/05/27 12:13:36;;;;;;;1.60;1.47;;;19.30;96.80;;;;;;5060191;28;20450;-88
2022/05/27 12:16:09;;;;;;;3.27;1.20;;;19.10;97.30;;;;;;5060919;28;20438;-90
2022/05/27 12:18:40;;;;;;;1.73;1.13;;;19.40;96.40;;;;;;5058391;28;20557;-89
2022/05/27 12:21:11;;;;;;;1.77;1.47;;;19.20;96.20;;;;;;5060201;28;20864;-88
2022/05/27 12:23:56;;;;;;;4.70;2.30;;;19.30;96.90;;;;;;5062013;23;21048;-89
2022/05/27 12:26:33;;;;;;;2.23;1.60;;;19.50;95.90;;;;;;5000194;28;20425;-92
2022/05/27 12:29:04;;;;;;;1.17;1.07;;;20.00;95.20;;;;;;5001333;28;20539;-95
2022/05/27 12:31:32;;;;;;;4.50;1.63;;;19.80;94.50;;;;;;5001498;28;20453;-94
2022/05/27 12:33:59;;;;;;;2.80;1.60;;;;;;;;;;5001005;28;20445;-90
2022/05/27 12:36:28;;;;;;;1.37;1.27;;;19.60;94.10;;;;;;4998550;28;20453;-91
2022/05/27 12:38:59;;;;;;;1.30;1.20;;;19.30;95.10;;;;;;4998851;28;20460;-94
2022/05/27 12:41:44;;;;;;;1.40;1.20;;;19.00;95.50;;;;;;5000003;28;20458;-90
2022/05/27 12:44:25;;;;;;;1.80;1.37;;;19.10;96.00;;;;;;4999800;28;20934;-91
2022/05/27 12:46:58;;;;;;;2.57;1.10;;;19.30;95.80;;;;;;4997866;28;20460;-93
2022/05/27 12:49:34;;;;;;;2.73;1.30;;;19.20;95.40;;;;;;5007985;28;20472;-88
2022/05/27 12:52:04;;;;;;;2.00;1.10;;;19.30;95.80;;;;;;5018488;28;20483;-90
2022/05/27 12:55:04;;;;;;;1.23;1.13;;;19.60;95.70;;;;;;5017117;28;20444;-89
2022/05/27 13:03:48;;;;;;;1.87;1.00;;;19.80;95.90;;;;;;5016302;28;20546;-90
2022/05/27 13:06:33;;;;;;;1.50;1.23;;;19.70;95.60;;;;;;5016411;28;20460;-90
2022/05/27 13:09:03;;;;;;;1.17;1.07;;;19.40;94.90;;;;;;5017112;28;20552;-87
2022/05/27 13:11:48;;;;;;;1.60;1.47;;;19.10;96.90;;;;;;5015046;28;20445;-89
2022/05/27 13:14:20;;;;;;;1.93;1.10;;;19.10;97.30;;;;;;5035642;28;20444;-89
2022/05/27 13:16:56;;;;;;;1.83;1.07;;;19.30;97.20;;;;;;5026590;28;20451;-91
2022/05/27 13:19:30;;;;;;;2.10;1.40;;;19.50;97.80;;;;;;5016159;28;20456;-90
2022/05/27 13:22:00;;;;;;;1.70;1.50;;;19.80;96.60;;;;;;5016139;28;20440;-92
2022/05/27 13:24:36;;;;;;;1.67;1.57;;;20.10;96.80;;;;;;5013342;28;20921;-90
2022/05/27 13:27:41;;;;;;;1.37;1.27;;;20.40;95.00;;;;;;5011571;28;20435;-89
2022/05/27 13:30:11;;;;;;;1.57;1.37;;;20.90;93.90;;;;;;5016409;28;20448;-90
2022/05/27 13:33:00;;;;;;;2.63;1.50;;;20.80;95.00;;;;;;5018110;28;20459;-88
2022/05/27 13:35:35;;;;;;;2.47;1.67;;;20.60;95.40;;;;;;5018105;28;20456;-89
2022/05/27 13:38:02;;;;;;;2.70;1.50;;;;;;;;;;5018726;28;20805;-87
2022/05/27 13:40:31;;;;;;;3.40;1.73;;;20.40;96.60;;;;;;5015230;28;20448;-88
2022/05/27 13:43:07;;;;;;;1.30;1.20;;;20.20;96.00;;;;;;5016415;28;20461;-88
2022/05/27 13:45:41;;;;;;;1.60;1.43;;;19.70;95.20;;;;;;5018486;28;20492;-89
2022/05/27 13:48:13;;;;;;;2.93;1.40;;;19.40;95.80;;;;;;5014455;28;20472;-93
2022/05/27 13:50:42;;;;;;;0.90;0.90;;;19.10;96.20;;;;;;5012178;28;20449;-93
2022/05/27 13:53:19;;;;;;;1.67;1.33;;;18.90;96.70;;;;;;5019382;28;20460;-89
2022/05/27 13:55:46;;;;;;;1.20;1.10;;;;;;;;;;5010120;28;20468;-90
2022/05/27 13:58:16;;;;;;;6.67;1.13;;;18.60;97.60;;;;;;5016034;28;20459;-88
2022/05/27 14:00:45;;;;;;;2.03;1.27;;;18.60;98.00;;;;;;5018813;28;20475;-91
2022/05/27 14:03:24;;;;;;;1.77;1.50;;;18.70;98.90;;;;;;5019679;28;20449;-90
2022/05/27 14:05:58;;;;;;;1.20;1.10;;;18.80;98.80;;;;;;5018395;28;20496;-89
2022/05/27 14:08:38;;;;;;;1.27;0.97;;;19.00;97.90;;;;;;5017055;28;20464;-90
2022/05/27 14:11:19;;;;;;;1.63;1.10;;;18.80;98.20;;;;;;5015379;28;20535;-89
2022/05/27 14:13:51;;;;;;;0.93;0.93;;;18.60;98.90;;;;;;5016641;28;20440;-91
2022/05/27 14:16:25;;;;;;;1.40;1.27;;;18.80;98.50;;;;;;5017174;28;20510;-91
2022/05/27 14:18:52;;;;;;;2.07;1.30;;;;;;;;;;5018233;28;20456;-89
2022/05/27 14:24:18;;;;;;;1.43;1.07;;;18.90;99.00;;;;;;5016591;28;20472;-91
2022/05/27 14:26:45;;;;;;;2.23;1.60;;;;;;;;;;5023414;28;20547;-88
2022/05/27 14:29:17;;;;;;;2.80;1.30;;;19.70;97.30;;;;;;5018343;28;20479;-92
2022/05/27 14:31:44;;;;;;;1.80;1.47;;;;;;;;;;5014405;28;20448;-92
2022/05/27 14:34:15;;;;;;;5.37;1.47;;;20.30;96.10;;;;;;5016329;28;20445;-92